Reese Air Force Base, Texas
Current Conditions -  °F | °C
As of 4:53 AM on Saturday 25 Oct 2014 (Local Time) from KLBB Reporting Station
Clear Clear  
Wind Chill: 54°   Ceiling: Unl
Heat Index: 54°   Visibility: 10mi
Dew Point: 48°   Wind: 6mph
Humidity: 80%   Direction: 270°W
Pressure: 30.16"   Gusts: NA
Location:  33.5936°N, 102.0291°W
Report Text: KLBB 250953Z 27005KT 10SM CLR 12/09 A3016 RMK AO2 SLP172 T01220089
Loading
Personal Weather Stations






























Interactive Weather Map
Tropical Storm Tracking
New forecast layout! Learn more

10-Day Weather Forecast

Advertisements
Track Severe Weather on mobile